Haukasen, Norway

6:57 PM CEST on August 28, 2014 (GMT +0200)
Haukasen | Change Station
CLOSE
Current Station
Airport
Location: Sogndal,
Elevation: 1631 ft
Nearby Weather Stations

Elev 1631 ft 61.16 °N, 7.14 °E | Updated 7 minutes ago

Partly Cloudy
Partly Cloudy
66 °F
Feels Like 66 °F
N
4
Wind Variable Wind from NE

Today
High -- | Low -- °F
--% Chance of Precip.
Yesterday
High -- | Low -- °F
Precip. -- in
6:12 AM 8:51 PM
Waxing Crescent, 9% visible
Pressure 29.92 in
Visibility 6.2 miles
Clouds Few 6000 ft
Dew Point 45 °F
Humidity 46%
Rainfall 0.00 in
Snow Depth Not available.
UV 1 out of 12
Pollen Not available.
Air Quality Not available.
Flu Activity Not available.
METAR ENSG 281650Z 04003KT 9999 FEW060 19/07 Q1013 RMK

More Conditions Fewer Conditions

Pressure 29.92 in
Visibility 6.2 miles
Clouds Few 6000 ft
Dew Point 45 °F
Humidity 46%
Rainfall 0.00 in
Snow Depth Not available.
UV 1 out of 12
Pollen Not available.
Air Quality Not available.
Flu Activity Not available.
METAR ENSG 281650Z 04003KT 9999 FEW060 19/07 Q1013 RMK

More Conditions Fewer Conditions

10-Day Weather Forecast

Almanac

Astronomy

Aug. 28, 2014 Rise Set
Actual Time 6:12 AM CEST 8:51 PM CEST
Civil Twilight 5:24 AM CEST 9:39 PM CEST
Nautical Twilight 4:18 AM CEST 10:43 PM CEST
Astronomical Twilight 2:34 AM CEST 12:21 AM CEST
Moon 9:45 AM CEST 9:04 PM CEST
Length of Visible Light 16h 14m
Length of Day
14h 38m
Tomorrow will be 5m 37s shorter.
Waxing Crescent, 9% of the Moon is Illuminated
Today
Waxing Crescent
Sep 2
First Quarter
Sep 8
Full
Sep 15
Last Quarter
Sep 24
New

Today's Extremes

Country Highs Country Lows

Community

WunderPhotos

Upload Photos

1,748,013 photos uploaded!

Nearby

Snow Depth

Not available.

Earthquake Activity

City Distance Mag. Time & Date
No recent earthquake activity has been reported nearby.
Minimum magnitude displayed is 2.5.

Coastal Water Temperatures

Place Temperature
No Stations Reporting

Nearby Weather Stations